Aviation Digital Data Service (ADDS)

Output produced by METARs form (0912 UTC 19 November 2018)
found at http://www.aviationweather.gov/metar/data/
 
KDLH 190520Z 1906/2006 VRB03KT 2SM -SN BKN020 OVC030 
     TEMPO 1906/1910 1SM -SN OVC015 
     FM191000 02008G15KT 4SM -SN OVC020 
     FM191200 01010G17KT P6SM SCT020 BKN030 
     FM191800 36009KT P6SM FEW035 SCT050